Time;durP1;ratioP1;P1;durP2;ratioP2;P2;SDS_P1;SDS_P2;PMS_P1;PMS_P2;Temp;Humidity;BMP_temperature;BMP_pressure;BME280_temperature;BME280_humidity;BME280_pressure;Samples;Min_cycle;Max_cycle;Signal;HPM_P1;HPM_P2
2021/11/12 00:12:05;;;;;;;139.25;35.85;;;;;;;11.08;52.22;95824.56;4972247;28;20193;-61
2021/11/12 00:14:33;;;;;;;85.33;33.73;;;;;;;11.02;52.31;95817.75;4986696;28;20031;-61
2021/11/12 00:16:59;;;;;;;100.90;31.98;;;;;;;11.03;52.32;95811.31;4973106;28;20298;-62
2021/11/12 00:19:25;;;;;;;299.20;35.88;;;;;;;11.09;52.08;95812.81;4962739;28;20523;-62
2021/11/12 00:21:50;;;;;;;132.48;32.13;;;;;;;11.07;51.39;95804.34;4961180;28;20031;-62
2021/11/12 00:24:15;;;;;;;213.68;36.28;;;;;;;11.09;51.62;95804.84;4969658;28;20481;-62
2021/11/12 00:26:41;;;;;;;72.35;30.33;;;;;;;11.06;51.39;95802.00;4971960;28;20023;-62
2021/11/12 00:29:08;;;;;;;427.23;43.28;;;;;;;10.89;51.51;95786.50;4971439;28;20078;-62
2021/11/12 00:31:51;;;;;;;118.97;32.90;;;;;;;11.00;51.55;95808.44;4971634;28;20026;-61
2021/11/12 00:39:46;;;;;;;282.50;36.42;;;;;;;10.87;51.40;95816.09;4952200;28;20114;-62
2021/11/12 00:42:22;;;;;;;143.32;31.77;;;;;;;10.81;51.54;95817.25;4952135;28;20028;-61
2021/11/12 00:47:22;;;;;;;221.93;33.90;;;;;;;10.84;51.51;95808.66;4955980;28;20029;-61
2021/11/12 00:50:06;;;;;;;81.18;30.42;;;;;;;10.85;50.90;95796.16;4985502;28;20041;-61
2021/11/12 00:55:29;;;;;;;63.47;29.67;;;;;;;10.88;51.62;95807.03;4932586;28;20047;-60
2021/11/12 00:57:56;;;;;;;79.57;28.77;;;;;;;10.88;50.55;95798.25;4952141;28;20113;-62
2021/11/12 01:00:23;;;;;;;90.38;29.08;;;;;;;10.78;51.08;95793.88;4966644;28;20033;-62
2021/11/12 01:02:49;;;;;;;400.67;43.78;;;;;;;10.81;51.45;95806.59;4959574;28;20495;-61
2021/11/12 01:05:15;;;;;;;148.52;34.22;;;;;;;10.85;51.31;95812.94;4982394;28;20033;-61
2021/11/12 01:07:40;;;;;;;79.30;30.30;;;;;;;10.86;51.46;95814.50;4959554;28;20070;-62
2021/11/12 01:10:10;;;;;;;115.00;31.77;;;;;;;10.92;51.49;95810.69;4950034;29;20478;-62
2021/11/12 01:12:37;;;;;;;231.10;36.35;;;;;;;10.88;50.67;95801.69;4951616;28;20023;-62
2021/11/12 01:15:04;;;;;;;50.33;29.95;;;;;;;10.80;51.51;95781.09;4951200;28;20452;-61
2021/11/12 01:17:30;;;;;;;63.30;28.88;;;;;;;10.96;51.34;95796.81;4954762;28;20104;-62
2021/11/12 01:19:56;;;;;;;83.32;29.73;;;;;;;10.84;51.09;95790.03;4958955;28;20465;-62
2021/11/12 01:22:22;;;;;;;77.68;27.85;;;;;;;10.91;51.35;95795.81;4967274;28;20031;-61
2021/11/12 01:24:48;;;;;;;55.90;27.27;;;;;;;10.87;50.82;95794.81;4951483;28;20122;-62
2021/11/12 01:27:14;;;;;;;47.65;27.23;;;;;;;10.97;50.44;95798.41;4951351;28;20082;-62
2021/11/12 01:29:39;;;;;;;100.85;30.58;;;;;;;10.94;50.88;95795.22;4950827;28;20401;-61
2021/11/12 01:32:22;;;;;;;67.88;28.17;;;;;;;10.96;50.54;95791.50;4951389;28;20043;-62
2021/11/12 01:34:56;;;;;;;53.08;26.60;;;;;;;10.85;50.48;95796.97;4959511;28;20027;-61
2021/11/12 01:37:24;;;;;;;71.35;29.25;;;;;;;10.77;50.89;95778.97;4961301;28;20027;-62
2021/11/12 01:39:55;;;;;;;71.90;27.27;;;;;;;10.74;51.02;95792.84;4970297;28;20487;-62
2021/11/12 01:42:24;;;;;;;58.03;24.98;;;;;;;10.63;50.52;95791.41;4970438;28;20022;-61
2021/11/12 01:45:03;;;;;;;68.25;24.52;;;;;;;10.61;50.63;95785.63;4970185;28;20134;-62
2021/11/12 01:47:44;;;;;;;48.50;24.75;;;;;;;10.61;50.73;95780.28;4972120;28;20026;-61
2021/11/12 01:50:20;;;;;;;183.35;23.90;;;;;;;10.47;50.67;95784.75;4961044;28;20531;-61
2021/11/12 01:52:47;;;;;;;54.08;16.27;;;;;;;10.23;50.42;95761.59;4958747;28;20118;-61
2021/11/12 01:56:07;;;;;;;202.55;23.08;;;;;;;10.27;50.45;95783.13;4950880;28;20558;-62
2021/11/12 02:00:30;;;;;;;122.75;23.90;;;;;;;10.18;50.12;95771.53;4954825;28;20466;-62
2021/11/12 02:02:59;;;;;;;113.05;22.73;;;;;;;10.09;50.57;95772.16;4958163;28;20078;-62
2021/11/12 02:05:25;;;;;;;20.58;17.92;;;;;;;10.16;50.35;95763.84;4964046;28;20027;-62
2021/11/12 02:07:51;;;;;;;47.28;20.25;;;;;;;10.14;51.04;95763.34;4960237;28;20019;-61
2021/11/12 02:10:24;;;;;;;42.33;18.65;;;;;;;10.12;50.71;95750.31;4954758;28;20031;-62
2021/11/12 02:15:38;;;;;;;17.98;16.42;;;;;;;10.26;51.02;95765.59;4954865;29;20041;-62
2021/11/12 02:18:13;;;;;;;70.32;19.38;;;;;;;10.18;50.30;95752.91;4957167;28;20034;-61
2021/11/12 02:20:54;;;;;;;182.02;31.67;;;;;;;10.21;50.70;95761.13;4964345;28;20154;-62
2021/11/12 02:23:20;;;;;;;140.10;23.20;;;;;;;10.07;50.52;95758.34;4962390;28;20019;-62
2021/11/12 02:25:45;;;;;;;44.97;17.90;;;;;;;10.08;51.40;95759.13;4954522;28;20281;-62
2021/11/12 02:28:14;;;;;;;95.18;20.83;;;;;;;9.99;50.80;95752.91;4954608;29;20782;-62
2021/11/12 02:30:43;;;;;;;356.88;33.72;;;;;;;9.68;52.11;95747.94;4954053;28;20023;-62
2021/11/12 02:33:15;;;;;;;472.83;35.50;;;;;;;9.73;52.22;95745.22;4970466;28;20077;-62
2021/11/12 02:36:07;;;;;;;51.42;20.65;;;;;;;9.68;52.63;95734.66;4964245;28;20166;-62
2021/11/12 02:38:45;;;;;;;302.00;27.25;;;;;;;9.71;52.38;95731.41;4966144;28;20027;-61
2021/11/12 02:41:11;;;;;;;251.65;28.23;;;;;;;9.73;52.06;95721.31;4973192;28;20034;-61
2021/11/12 02:43:39;;;;;;;274.58;29.02;;;;;;;9.48;52.91;95727.69;4973270;28;20038;-62
2021/11/12 02:46:07;;;;;;;98.40;24.15;;;;;;;9.73;52.25;95723.19;4972075;28;20062;-61
2021/11/12 02:48:36;;;;;;;92.15;24.58;;;;;;;9.84;52.39;95714.81;4972928;28;20031;-61
2021/11/12 02:51:07;;;;;;;88.65;25.33;;;;;;;9.93;52.60;95722.13;4979682;28;20031;-62
2021/11/12 02:53:32;;;;;;;99.15;25.70;;;;;;;9.94;52.47;95721.84;4965423;28;20038;-62
2021/11/12 02:56:02;;;;;;;438.20;43.28;;;;;;;9.99;52.18;95727.13;4973251;28;20038;-61
2021/11/12 02:58:30;;;;;;;71.80;25.70;;;;;;;9.95;51.97;95706.72;4973435;28;20510;-61
2021/11/12 03:00:56;;;;;;;215.07;28.40;;;;;;;9.94;52.57;95707.78;4972897;28;20473;-60
2021/11/12 03:03:22;;;;;;;127.82;26.13;;;;;;;10.03;52.88;95711.38;4976609;28;20106;-62
2021/11/12 03:05:48;;;;;;;47.65;22.95;;;;;;;10.12;52.61;95712.31;4961182;28;20512;-62
2021/11/12 03:08:13;;;;;;;243.38;29.65;;;;;;;9.93;52.70;95700.88;4976362;28;20437;-60
2021/11/12 03:10:39;;;;;;;200.88;28.52;;;;;;;9.84;53.25;95712.16;4987665;28;20022;-61
2021/11/12 03:13:06;;;;;;;230.40;31.98;;;;;;;9.86;53.26;95707.31;4972742;28;20113;-63
2021/11/12 03:15:31;;;;;;;118.63;26.17;;;;;;;9.90;53.05;95711.00;4972911;28;20042;-60
2021/11/12 03:17:58;;;;;;;243.48;33.92;;;;;;;9.95;53.06;95707.50;4975157;28;20050;-60
2021/11/12 03:20:25;;;;;;;149.63;28.77;;;;;;;9.96;52.65;95711.72;4963715;28;20033;-60
2021/11/12 03:22:58;;;;;;;165.23;26.65;;;;;;;9.68;53.26;95710.75;4961420;28;20146;-60
2021/11/12 03:25:33;;;;;;;238.90;36.45;;;;;;;9.95;53.11;95712.03;4971988;28;20031;-61
2021/11/12 04:00:40;;;;;;;123.70;31.55;;;;;;;10.35;52.79;95690.22;4972126;28;20033;-62
2021/11/12 04:03:38;;;;;;;153.48;32.92;;;;;;;10.40;52.86;95702.66;4973521;28;20035;-61
2021/11/12 04:22:13;;;;;;;109.53;26.42;;;;;;;10.44;52.53;95686.91;4963444;28;20070;-62
2021/11/12 05:03:21;;;;;;;145.55;27.58;;;;;;;10.10;52.39;95685.25;4970846;28;20058;-62
2021/11/12 05:56:22;;;;;;;119.72;24.17;;;;;;;9.74;52.48;95691.03;4989663;28;20088;-70
2021/11/12 05:58:48;;;;;;;134.63;21.70;;;;;;;9.71;51.95;95694.22;4989869;28;20106;-71
2021/11/12 06:01:14;;;;;;;94.15;20.60;;;;;;;9.86;52.59;95696.69;4989525;28;20030;-67
2021/11/12 06:03:39;;;;;;;33.83;18.55;;;;;;;9.99;52.23;95694.44;4990667;28;20037;-67
2021/11/12 06:06:05;;;;;;;81.20;20.55;;;;;;;10.00;51.59;95693.34;4992524;28;20037;-67
2021/11/12 06:08:30;;;;;;;56.30;17.98;;;;;;;10.09;51.46;95692.44;4989602;28;20069;-69
2021/11/12 06:10:56;;;;;;;32.45;17.23;;;;;;;10.07;51.22;95683.16;4989456;28;20023;-66
2021/11/12 06:13:21;;;;;;;109.75;19.75;;;;;;;9.97;51.63;95692.03;5004380;28;20519;-72
2021/11/12 06:15:47;;;;;;;93.22;20.80;;;;;;;9.79;51.14;95695.47;4989650;28;20026;-69
2021/11/12 06:18:13;;;;;;;26.20;18.92;;;;;;;9.84;51.17;95682.91;4989847;28;20108;-70
2021/11/12 06:20:38;;;;;;;32.92;16.55;;;;;;;9.93;50.93;95684.91;4984304;28;20018;-73
2021/11/12 06:23:04;;;;;;;17.73;16.10;;;;;;;9.94;51.50;95674.03;4989445;28;20026;-69
2021/11/12 06:25:29;;;;;;;28.90;17.55;;;;;;;10.14;51.13;95680.94;4970457;28;20058;-69
2021/11/12 06:27:55;;;;;;;15.55;14.00;;;;;;;10.13;50.70;95668.69;4970428;28;20115;-70
2021/11/12 06:30:20;;;;;;;20.10;13.57;;;;;;;10.21;50.92;95672.59;4969876;28;20484;-72
2021/11/12 06:32:46;;;;;;;20.58;14.63;;;;;;;10.27;50.32;95679.44;4970418;28;20046;-72
2021/11/12 06:35:12;;;;;;;14.95;13.50;;;;;;;10.38;49.78;95681.66;4983222;28;20383;-70
2021/11/12 06:37:37;;;;;;;23.20;16.33;;;;;;;10.44;49.47;95677.06;4984800;28;20476;-70
2021/11/12 06:40:05;;;;;;;15.95;14.38;;;;;;;10.43;49.99;95682.66;4989207;28;20746;-70
2021/11/12 06:42:36;;;;;;;22.02;14.07;;;;;;;10.51;49.96;95680.16;4991312;28;20022;-70
2021/11/12 06:50:23;;;;;;;26.05;15.60;;;;;;;10.59;49.59;95676.81;4992478;28;20429;-70
2021/11/12 06:52:49;;;;;;;156.23;21.27;;;;;;;10.48;49.50;95666.63;4991177;28;20460;-71
2021/11/12 06:55:16;;;;;;;28.45;16.33;;;;;;;10.40;49.95;95671.53;4992959;28;20062;-70
2021/11/12 06:57:43;;;;;;;23.63;17.08;;;;;;;10.49;49.78;95686.81;4992978;28;20443;-70
2021/11/12 07:00:11;;;;;;;36.97;17.92;;;;;;;10.50;49.34;95688.44;4992741;28;20033;-71
2021/11/12 07:02:37;;;;;;;26.17;17.23;;;;;;;10.47;49.69;95681.78;4992984;28;20391;-72
2021/11/12 07:05:03;;;;;;;26.45;15.35;;;;;;;10.48;49.59;95682.59;4987923;28;20037;-71
2021/11/12 07:07:29;;;;;;;79.22;19.30;;;;;;;10.37;49.68;95679.28;4988076;28;20084;-72
2021/11/12 07:09:55;;;;;;;69.28;20.80;;;;;;;10.03;49.82;95676.81;4992253;28;20465;-72
2021/11/12 07:12:20;;;;;;;29.58;16.25;;;;;;;10.11;50.28;95681.50;4992690;28;20035;-72
2021/11/12 07:14:46;;;;;;;72.55;20.02;;;;;;;10.08;50.60;95680.22;4992469;28;20121;-72
2021/11/12 07:17:12;;;;;;;35.33;16.58;;;;;;;10.09;50.03;95673.03;4992676;28;20056;-72
2021/11/12 07:19:38;;;;;;;91.85;19.00;;;;;;;10.04;50.33;95679.22;5005748;28;20479;-71
2021/11/12 07:22:04;;;;;;;42.97;16.67;;;;;;;10.08;50.65;95693.50;4984218;28;20627;-71
2021/11/12 07:24:30;;;;;;;63.05;19.05;;;;;;;10.09;50.22;95675.69;4992483;28;20022;-71
2021/11/12 07:26:57;;;;;;;106.88;19.38;;;;;;;9.86;50.13;95696.69;4992483;28;20030;-72
2021/11/12 07:29:25;;;;;;;100.45;19.05;;;;;;;9.67;50.43;95687.09;4992024;28;20027;-72
2021/11/12 07:31:51;;;;;;;34.53;16.08;;;;;;;9.86;50.52;95677.31;4992554;28;20026;-72
2021/11/12 07:34:16;;;;;;;80.45;20.80;;;;;;;9.83;50.57;95691.19;5006464;28;20030;-72
2021/11/12 07:36:53;;;;;;;86.97;18.98;;;;;;;9.77;51.03;95695.75;4985634;28;20026;-71
2021/11/12 07:40:05;;;;;;;56.10;19.15;;;;;;;9.96;50.69;95690.47;4990176;28;20097;-72
2021/11/12 07:47:14;;;;;;;17.67;15.02;;;;;;;10.41;50.50;95689.06;4992036;28;20049;-70
2021/11/12 07:49:50;;;;;;;22.17;14.68;;;;;;;10.50;49.67;95675.13;4989821;28;20026;-71
2021/11/12 07:52:17;;;;;;;36.65;15.63;;;;;;;10.50;49.75;95678.56;4985168;28;20022;-70
2021/11/12 07:54:44;;;;;;;23.48;15.60;;;;;;;10.35;50.30;95681.47;4990651;28;20022;-71
2021/11/12 07:57:11;;;;;;;27.90;15.15;;;;;;;10.46;50.29;95680.22;4991868;28;20053;-69
2021/11/12 07:59:37;;;;;;;26.33;14.40;;;;;;;10.46;50.28;95680.22;4991629;28;20026;-69
2021/11/12 08:02:04;;;;;;;18.90;16.05;;;;;;;10.63;50.28;95671.72;4991854;28;20484;-70
2021/11/12 08:04:30;;;;;;;22.60;15.82;;;;;;;10.89;49.48;95685.38;4990781;28;20098;-64
2021/11/12 08:06:57;;;;;;;19.15;14.18;;;;;;;10.82;50.20;95669.00;4986460;28;20564;-63
2021/11/12 08:09:26;;;;;;;37.10;14.60;;;;;;;10.98;49.37;95678.31;4990642;28;20034;-63
2021/11/12 08:12:03;;;;;;;15.27;13.88;;;;;;;11.23;48.89;95679.75;4991328;28;20427;-63
2021/11/12 08:22:08;;;;;;;14.15;11.75;;;;;;;12.01;46.98;95674.50;4981125;28;20038;-71
2021/11/12 08:40:04;;;;;;;12.15;11.15;;;;;;;12.25;46.26;95651.03;4990666;28;20137;-69
2021/11/12 08:42:38;;;;;;;11.35;10.30;;;;;;;12.42;45.82;95648.50;4989678;28;20026;-74
2021/11/12 08:45:16;;;;;;;12.35;11.07;;;;;;;12.57;45.58;95652.69;4991558;28;20029;-81
2021/11/12 08:47:45;;;;;;;13.43;12.23;;;;;;;12.70;45.14;95656.41;4989885;28;20038;-74
2021/11/12 08:50:17;;;;;;;13.85;12.63;;;;;;;12.46;44.57;95651.34;4994893;28;20032;-66
2021/11/12 08:52:44;;;;;;;14.43;12.77;;;;;;;12.36;45.05;95649.72;4985520;28;20106;-71
2021/11/12 08:55:10;;;;;;;12.23;11.15;;;;;;;12.14;45.19;95653.16;4990530;28;20066;-72
2021/11/12 08:57:36;;;;;;;12.80;11.55;;;;;;;12.32;45.39;95651.41;4990709;28;20436;-71
2021/11/12 09:00:05;;;;;;;13.70;12.68;;;;;;;12.42;45.14;95642.38;4989043;28;20029;-72
2021/11/12 09:02:30;;;;;;;11.75;10.63;;;;;;;12.40;45.46;95632.00;4990416;28;20072;-71
2021/11/12 09:04:56;;;;;;;11.48;10.45;;;;;;;12.68;44.87;95621.97;4989649;28;20046;-70
2021/11/12 09:07:23;;;;;;;11.10;10.05;;;;;;;12.84;44.59;95629.59;4977242;28;20450;-71
2021/11/12 09:09:51;;;;;;;12.13;10.95;;;;;;;12.82;44.33;95632.59;4990435;28;20026;-70
2021/11/12 09:12:18;;;;;;;14.40;12.23;;;;;;;12.42;44.80;95637.81;4990567;28;20027;-72
2021/11/12 09:14:47;;;;;;;11.70;10.52;;;;;;;12.32;45.41;95623.94;4990272;28;20030;-73
2021/11/12 09:17:15;;;;;;;12.63;11.43;;;;;;;12.39;45.23;95627.00;4990476;28;20095;-71
2021/11/12 09:19:49;;;;;;;13.32;11.02;;;;;;;12.63;45.15;95634.66;5004614;28;20090;-71
2021/11/12 09:22:17;;;;;;;11.30;10.30;;;;;;;12.83;44.60;95631.50;4985069;28;20389;-70
2021/11/12 09:24:43;;;;;;;12.38;11.27;;;;;;;12.97;44.21;95626.06;4990013;28;20437;-70
2021/11/12 09:27:10;;;;;;;14.15;11.38;;;;;;;13.00;43.99;95622.81;4990053;28;20026;-71
2021/11/12 09:29:36;;;;;;;11.25;10.25;;;;;;;13.22;43.62;95619.31;4989677;28;20030;-71
2021/11/12 09:32:04;;;;;;;13.07;11.82;;;;;;;13.42;43.36;95618.75;4990225;28;20034;-71
2021/11/12 09:34:34;;;;;;;11.80;10.60;;;;;;;13.48;43.33;95616.72;4989414;28;20030;-70
2021/11/12 09:37:01;;;;;;;12.30;11.20;;;;;;;13.66;43.11;95612.97;4981160;28;20018;-70
2021/11/12 09:39:26;;;;;;;12.82;11.60;;;;;;;13.78;42.77;95615.06;4989517;28;20109;-70
2021/11/12 09:41:52;;;;;;;16.73;13.52;;;;;;;13.76;42.61;95611.91;4990350;28;20018;-71
2021/11/12 09:44:19;;;;;;;17.80;12.65;;;;;;;13.70;42.56;95607.81;4989770;28;20050;-70
2021/11/12 09:46:45;;;;;;;14.27;12.80;;;;;;;13.90;42.32;95615.22;4990372;28;20018;-70
2021/11/12 09:49:10;;;;;;;13.32;11.95;;;;;;;13.92;42.42;95594.31;4989572;28;20042;-70
2021/11/12 09:51:36;;;;;;;13.02;11.82;;;;;;;13.94;42.18;95608.16;4980601;28;20425;-71
2021/11/12 09:54:01;;;;;;;14.38;13.07;;;;;;;13.79;42.05;95596.03;5000669;28;20030;-71
2021/11/12 09:56:27;;;;;;;18.58;12.98;;;;;;;14.02;42.50;95604.72;4990205;28;20022;-70
2021/11/12 09:58:52;;;;;;;12.75;11.45;;;;;;;14.09;42.61;95601.56;4989889;28;20094;-70
2021/11/12 10:01:27;;;;;;;16.13;12.65;;;;;;;14.00;42.29;95603.44;4989764;28;20033;-70
2021/11/12 10:03:53;;;;;;;14.48;12.90;;;;;;;13.98;41.91;95601.09;4989736;28;20502;-70
2021/11/12 10:06:23;;;;;;;14.05;12.43;;;;;;;14.03;42.47;95603.59;4987935;28;20031;-70
2021/11/12 10:08:49;;;;;;;14.00;12.70;;;;;;;14.07;42.26;95581.56;4985049;28;20026;-70
2021/11/12 10:11:25;;;;;;;14.95;13.30;;;;;;;14.20;41.60;95594.00;4985035;28;20019;-71
2021/11/12 10:13:59;;;;;;;13.60;12.40;;;;;;;14.27;41.43;95589.75;4970229;28;20118;-72
2021/11/12 10:19:02;;;;;;;11.65;10.55;;;;;;;14.76;41.44;95574.28;4974134;28;20038;-70
2021/11/12 10:21:37;;;;;;;11.02;10.02;;;;;;;14.65;41.26;95573.03;4984666;28;20099;-73
2021/11/12 10:24:09;;;;;;;10.73;9.65;;;;;;;14.70;40.90;95567.53;4984976;28;20031;-71
2021/11/12 10:26:36;;;;;;;10.65;9.73;;;;;;;14.92;40.69;95571.06;4986259;28;20253;-71
2021/11/12 10:29:09;;;;;;;11.05;10.15;;;;;;;14.86;40.40;95559.75;4993306;28;20023;-71
2021/11/12 10:31:59;;;;;;;11.07;10.00;;;;;;;14.89;40.83;95561.78;4993232;28;20038;-71
2021/11/12 10:34:35;;;;;;;10.68;9.77;;;;;;;14.71;40.59;95560.28;4990176;28;20034;-70
2021/11/12 10:37:28;;;;;;;11.32;10.43;;;;;;;14.54;41.39;95555.75;5003727;28;20034;-70
2021/11/12 10:40:09;;;;;;;12.90;11.60;;;;;;;14.39;41.10;95557.00;4988463;28;20027;-70
2021/11/12 10:42:41;;;;;;;11.55;10.57;;;;;;;14.24;41.92;95557.50;4973828;28;20050;-70
2021/11/12 10:45:10;;;;;;;11.90;10.85;;;;;;;14.34;41.97;95557.16;4973510;28;20031;-71
2021/11/12 10:47:46;;;;;;;12.35;11.35;;;;;;;14.36;41.99;95570.22;4973489;28;20046;-71
2021/11/12 10:50:14;;;;;;;11.02;10.13;;;;;;;14.47;41.88;95552.72;4977241;28;20041;-72
2021/11/12 10:52:40;;;;;;;12.15;10.95;;;;;;;14.68;41.43;95548.28;4986273;28;20105;-71
2021/11/12 10:55:16;;;;;;;12.35;11.20;;;;;;;14.55;41.62;95542.03;5004522;28;20114;-71
2021/11/12 10:57:56;;;;;;;13.95;10.80;;;;;;;14.81;41.29;95543.84;4992716;28;20392;-71
2021/11/12 11:00:32;;;;;;;12.05;10.95;;;;;;;14.27;41.56;95527.41;4991384;28;20088;-71
2021/11/12 11:02:59;;;;;;;11.45;10.55;;;;;;;13.77;42.49;95526.06;4991207;28;20556;-70
2021/11/12 11:05:30;;;;;;;15.02;11.70;;;;;;;14.09;43.00;95520.53;4992389;28;20054;-70
2021/11/12 11:08:01;;;;;;;12.48;11.48;;;;;;;14.35;42.37;95520.50;4984459;28;20360;-70
2021/11/12 11:10:35;;;;;;;12.77;11.65;;;;;;;14.29;42.00;95519.88;4991695;28;20097;-70
2021/11/12 11:13:08;;;;;;;13.25;12.25;;;;;;;14.29;42.08;95520.66;4992017;28;20054;-70
2021/11/12 11:15:55;;;;;;;12.75;11.65;;;;;;;14.03;42.08;95523.38;4991523;28;20472;-71
2021/11/12 11:18:32;;;;;;;13.00;11.90;;;;;;;14.21;42.39;95516.09;4992415;28;20042;-71
2021/11/12 11:23:49;;;;;;;12.18;11.07;;;;;;;14.98;41.43;95516.22;4985268;28;20026;-71
2021/11/12 11:26:21;;;;;;;13.45;12.00;;;;;;;15.12;40.94;95521.34;4992607;28;20026;-79
2021/11/12 11:28:48;;;;;;;12.85;11.88;;;;;;;15.26;40.51;95500.47;4992392;28;20027;-74
2021/11/12 11:31:16;;;;;;;13.77;12.55;;;;;;;15.14;40.63;95509.19;4992834;28;20035;-79
2021/11/12 11:33:45;;;;;;;12.20;10.77;;;;;;;15.15;40.77;95518.81;4991026;28;20427;-72
2021/11/12 11:36:16;;;;;;;12.18;11.15;;;;;;;15.48;40.47;95510.09;4991880;28;20252;-73
2021/11/12 11:38:42;;;;;;;12.60;11.40;;;;;;;15.45;40.10;95502.69;4992351;28;20030;-74
2021/11/12 11:41:17;;;;;;;13.60;11.85;;;;;;;15.45;40.18;95500.03;5007878;28;20389;-74
2021/11/12 11:43:43;;;;;;;11.93;10.80;;;;;;;15.38;40.54;95492.50;4991918;28;20105;-73
2021/11/12 11:46:12;;;;;;;12.90;11.57;;;;;;;15.45;40.55;95484.72;4993125;28;20037;-78
2021/11/12 11:48:40;;;;;;;15.20;11.63;;;;;;;15.71;40.31;95494.50;4993399;28;20026;-71
2021/11/12 11:51:09;;;;;;;11.88;10.88;;;;;;;15.72;40.02;95490.72;4986126;28;20564;-75
2021/11/12 11:53:45;;;;;;;11.40;10.15;;;;;;;15.92;39.45;95473.84;4986138;28;20033;-79
2021/11/12 11:56:29;;;;;;;14.57;12.30;;;;;;;15.75;39.20;95474.75;4988813;28;20069;-78
2021/11/12 11:58:56;;;;;;;12.95;11.85;;;;;;;15.74;39.84;95467.03;4974572;28;20084;-78
2021/11/12 12:01:22;;;;;;;12.80;11.73;;;;;;;15.90;39.38;95470.69;4973882;28;20031;-88
2021/11/12 12:04:10;;;;;;;12.40;11.25;;;;;;;15.95;39.42;95475.06;4974975;28;20447;-83
2021/11/12 12:06:36;;;;;;;13.40;12.07;;;;;;;16.06;39.04;95470.84;4986675;28;20072;-79
2021/11/12 12:09:06;;;;;;;12.48;11.23;;;;;;;15.83;39.38;95476.59;4992827;28;20031;-72
2021/11/12 12:11:49;;;;;;;12.38;11.27;;;;;;;16.11;39.27;95476.78;4973391;28;20487;-77
2021/11/12 12:14:15;;;;;;;13.40;12.05;;;;;;;15.98;39.41;95477.88;4972773;28;20037;-80
2021/11/12 12:16:40;;;;;;;12.88;11.70;;;;;;;16.07;39.73;95477.78;4973627;28;20427;-72
2021/11/12 12:19:08;;;;;;;11.93;10.93;;;;;;;16.24;38.89;95479.53;4971807;28;20086;-72
2021/11/12 12:21:53;;;;;;;13.45;10.60;;;;;;;16.51;38.65;95472.75;4982861;28;20038;-72
2021/11/12 12:33:43;;;;;;;13.43;12.32;;;;;;;15.31;39.64;95439.44;4991246;28;20041;-71
2021/11/12 13:25:49;;;;;;;15.88;14.43;;;;;;;14.31;43.13;95432.81;4990449;28;20044;-71
2021/11/12 13:28:25;;;;;;;18.98;14.27;;;;;;;13.97;43.84;95439.06;5004110;28;20030;-69
2021/11/12 13:31:13;;;;;;;16.02;14.20;;;;;;;14.09;43.81;95443.75;4989602;28;20112;-71
2021/11/12 13:33:48;;;;;;;14.70;13.38;;;;;;;14.15;43.79;95422.94;4989761;28;20034;-69
2021/11/12 13:36:20;;;;;;;17.88;15.50;;;;;;;14.12;43.88;95434.28;4989595;28;20033;-70
2021/11/12 13:39:08;;;;;;;16.33;14.75;;;;;;;13.96;43.84;95434.78;4985136;28;20105;-70
2021/11/12 13:41:40;;;;;;;18.10;15.68;;;;;;;13.90;44.60;95433.38;4982178;28;20030;-70
2021/11/12 13:44:16;;;;;;;16.13;14.50;;;;;;;13.88;44.46;95432.16;4989779;28;20034;-70
2021/11/12 13:47:03;;;;;;;17.05;15.48;;;;;;;13.81;44.82;95421.13;4989924;28;20026;-70
2021/11/12 13:49:50;;;;;;;20.15;16.40;;;;;;;13.75;44.63;95423.19;4989446;28;20030;-70
2021/11/12 13:52:20;;;;;;;17.20;15.40;;;;;;;13.57;45.34;95413.63;4987678;28;20113;-70
2021/11/12 13:54:50;;;;;;;20.52;17.90;;;;;;;13.45;45.37;95412.34;4995756;28;20503;-70
2021/11/12 13:57:25;;;;;;;20.58;17.10;;;;;;;13.33;45.81;95409.53;4996416;28;20037;-69
2021/11/12 14:00:07;;;;;;;20.20;17.42;;;;;;;13.38;45.75;95408.59;4995777;28;20372;-70
2021/11/12 14:03:07;;;;;;;17.08;15.43;;;;;;;13.29;46.20;95429.97;4996471;28;20618;-69
2021/11/12 14:05:36;;;;;;;19.65;17.55;;;;;;;13.32;46.28;95420.53;4996250;28;20435;-70
2021/11/12 14:08:12;;;;;;;19.38;17.58;;;;;;;13.32;46.25;95421.31;4987603;28;20454;-70
2021/11/12 14:10:46;;;;;;;26.27;18.98;;;;;;;13.42;46.18;95423.69;4993348;28;20159;-69
2021/11/12 14:13:16;;;;;;;20.45;17.77;;;;;;;13.49;46.09;95421.31;4995898;28;20454;-70
2021/11/12 14:23:55;;;;;;;;;;;;;;;13.29;46.27;95411.25;4990406;28;20025;-70
2021/11/12 14:26:37;;;;;;;;;;;;;;;13.08;46.79;95405.72;4995518;28;19941;-70
2021/11/12 14:29:08;;;;;;;23.85;19.63;;;;;;;12.84;46.99;95406.16;4996079;28;20419;-70
2021/11/12 14:36:44;;;;;;;25.75;18.30;;;;;;;12.73;47.58;95396.88;4994609;28;20027;-70
2021/11/12 14:39:31;;;;;;;19.85;17.60;;;;;;;12.72;47.83;95401.41;4988016;28;20019;-70
2021/11/12 14:45:25;;;;;;;23.17;18.98;;;;;;;12.57;47.84;95401.06;4995737;28;20081;-70
2021/11/12 14:50:43;;;;;;;23.92;19.23;;;;;;;12.65;47.99;95401.09;4995828;28;20391;-73
2021/11/12 14:58:41;;;;;;;27.90;20.98;;;;;;;12.45;48.72;95394.44;4976390;28;20029;-70
2021/11/12 15:01:13;;;;;;;26.00;19.75;;;;;;;12.45;48.92;95388.31;4975408;28;20022;-69
2021/11/12 15:03:42;;;;;;;23.25;19.00;;;;;;;12.44;49.01;95381.41;4974419;28;20543;-69
2021/11/12 15:06:09;;;;;;;24.30;19.85;;;;;;;12.28;48.85;95353.56;4975091;28;20027;-69
2021/11/12 15:08:41;;;;;;;26.58;21.38;;;;;;;12.41;48.91;95390.03;4990318;28;20648;-70
2021/11/12 15:11:09;;;;;;;25.02;18.88;;;;;;;12.49;48.93;95381.28;4989050;28;20476;-70
2021/11/12 15:13:36;;;;;;;21.48;19.17;;;;;;;12.56;48.52;95383.47;4991950;28;20018;-69
2021/11/12 15:16:08;;;;;;;24.88;18.08;;;;;;;12.62;48.53;95390.25;4992296;28;20484;-69
2021/11/12 15:18:33;;;;;;;19.45;17.42;;;;;;;12.68;48.70;95391.66;4992509;28;20049;-70
2021/11/12 15:21:01;;;;;;;19.52;17.45;;;;;;;12.79;48.27;95390.28;4991237;28;20479;-70
2021/11/12 15:23:43;;;;;;;22.73;19.48;;;;;;;12.76;48.18;95393.59;4979138;28;20022;-70
2021/11/12 15:26:28;;;;;;;21.83;18.30;;;;;;;12.51;48.54;95375.63;4989489;28;20058;-70
2021/11/12 15:31:35;;;;;;;25.33;18.48;;;;;;;12.59;48.67;95377.50;4992270;28;20048;-70
2021/11/12 15:34:05;;;;;;;24.60;18.80;;;;;;;12.67;48.74;95382.09;4991655;28;20563;-70
2021/11/12 15:36:33;;;;;;;25.30;18.40;;;;;;;12.64;48.75;95375.50;4991443;28;20469;-69
2021/11/12 15:47:21;;;;;;;23.42;16.63;;;;;;;12.55;49.36;95374.69;4983201;28;20062;-69
2021/11/12 15:49:46;;;;;;;22.33;18.38;;;;;;;12.59;49.53;95380.19;4991636;28;20034;-71
2021/11/12 15:52:22;;;;;;;22.77;16.55;;;;;;;12.66;49.25;95380.53;4988015;28;20030;-70
2021/11/12 15:55:05;;;;;;;24.88;18.98;;;;;;;12.66;48.84;95383.19;4986626;28;20029;-70
2021/11/12 15:57:53;;;;;;;22.70;18.70;;;;;;;12.64;48.71;95380.84;4991673;28;20026;-70
2021/11/12 16:05:57;;;;;;;22.40;19.67;;;;;;;12.51;49.39;95372.97;4990709;28;20117;-70
2021/11/12 16:19:30;;;;;;;28.48;20.15;;;;;;;12.65;49.48;95379.75;4950490;28;20060;-70
2021/11/12 16:22:28;;;;;;;27.73;20.83;;;;;;;12.70;49.37;95381.47;4977269;28;20045;-70
2021/11/12 16:27:19;;;;;;;23.02;18.67;;;;;;;12.66;49.43;95383.97;4991351;28;20037;-69
2021/11/12 16:29:52;;;;;;;25.73;18.67;;;;;;;12.78;49.37;95380.69;4990648;28;20118;-68
2021/11/12 16:32:28;;;;;;;21.70;17.75;;;;;;;12.81;49.18;95385.44;4991166;28;20030;-71
2021/11/12 16:34:59;;;;;;;20.02;17.38;;;;;;;12.77;49.32;95379.13;4990806;28;20035;-68
2021/11/12 16:37:27;;;;;;;19.55;17.45;;;;;;;12.76;49.03;95377.56;4990648;28;20083;-71
2021/11/12 16:40:02;;;;;;;29.85;18.73;;;;;;;12.77;49.21;95375.69;4985699;28;20032;-68
2021/11/12 16:47:31;;;;;;;30.95;19.58;;;;;;;12.72;49.46;95393.41;4990728;28;20022;-72
2021/11/12 17:03:21;;;;;;;33.67;21.67;;;;;;;12.67;50.31;95374.09;4990184;28;20557;-66
2021/11/12 17:06:24;;;;;;;22.33;18.55;;;;;;;12.68;50.36;95381.78;4990251;28;20113;-66
2021/11/12 17:11:14;;;;;;;44.30;19.75;;;;;;;12.55;50.06;95395.25;4990347;28;20081;-67